createdAt,value
2018-09-29T00:01:50.061Z,2.07
2018-09-29T00:04:19.473Z,1.97
2018-09-29T00:06:48.950Z,1.70
2018-09-29T00:09:18.370Z,1.63
2018-09-29T00:11:48.230Z,1.90
2018-09-29T00:14:17.884Z,1.70
2018-09-29T00:16:47.193Z,1.57
2018-09-29T00:19:16.616Z,1.73
2018-09-29T00:21:45.726Z,2.00
2018-09-29T00:24:15.112Z,2.20
2018-09-29T00:26:44.622Z,2.20
2018-09-29T00:29:13.884Z,1.67
2018-09-29T00:31:43.414Z,1.83
2018-09-29T00:34:13.276Z,2.33
2018-09-29T00:36:42.630Z,2.40
2018-09-29T00:39:12.222Z,2.50
2018-09-29T00:41:41.502Z,2.40
2018-09-29T00:44:10.834Z,2.00
2018-09-29T00:46:40.590Z,2.37
2018-09-29T00:49:09.858Z,2.40
2018-09-29T00:51:39.266Z,1.90
2018-09-29T00:54:08.930Z,2.00
2018-09-29T00:56:38.266Z,2.60
2018-09-29T00:59:07.634Z,2.20
2018-09-29T01:01:36.953Z,2.40
2018-09-29T01:04:06.529Z,2.40
2018-09-29T01:06:35.809Z,2.40
2018-09-29T01:09:05.984Z,2.37
2018-09-29T01:11:35.293Z,2.50
2018-09-29T01:14:04.707Z,2.40
2018-09-29T01:16:34.296Z,2.50
2018-09-29T01:19:03.616Z,3.07
2018-09-29T01:21:32.951Z,2.67
2018-09-29T01:24:02.591Z,3.07
2018-09-29T01:26:32.436Z,3.13
2018-09-29T01:29:02.312Z,2.83
2018-09-29T01:31:31.945Z,2.30
2018-09-29T01:34:01.471Z,2.40
2018-09-29T01:36:30.884Z,1.90
2018-09-29T01:39:00.450Z,2.17
2018-09-29T01:41:29.966Z,1.80
2018-09-29T01:43:59.087Z,2.20
2018-09-29T01:46:28.421Z,2.50
2018-09-29T01:48:57.641Z,2.10
2018-09-29T01:51:27.268Z,2.00
2018-09-29T01:53:56.449Z,2.10
2018-09-29T01:56:25.768Z,2.57
2018-09-29T01:58:55.099Z,2.07
2018-09-29T02:01:24.581Z,1.90
2018-09-29T02:03:54.473Z,2.00
2018-09-29T02:06:23.735Z,2.00
2018-09-29T02:08:53.070Z,2.07
2018-09-29T02:11:22.377Z,2.30
2018-09-29T02:13:51.491Z,2.10
2018-09-29T02:16:20.906Z,2.17
2018-09-29T02:18:50.374Z,2.30
2018-09-29T02:21:19.696Z,2.17
2018-09-29T02:23:49.344Z,2.00
2018-09-29T02:26:18.685Z,2.10
2018-09-29T02:28:48.227Z,2.43
2018-09-29T02:31:17.894Z,2.20
2018-09-29T02:33:47.767Z,2.20
2018-09-29T02:36:17.557Z,2.10
2018-09-29T02:38:46.709Z,2.07
2018-09-29T02:41:16.049Z,2.40
2018-09-29T02:43:45.562Z,2.33
2018-09-29T02:46:15.166Z,2.10
2018-09-29T02:48:44.644Z,2.17
2018-09-29T02:51:14.132Z,2.20
2018-09-29T02:53:43.301Z,1.57
2018-09-29T02:56:12.531Z,1.90
2018-09-29T02:58:41.984Z,2.10
2018-09-29T03:01:11.306Z,2.10
2018-09-29T03:03:40.820Z,2.10
2018-09-29T03:06:10.206Z,2.10
2018-09-29T03:08:39.966Z,2.00
2018-09-29T03:11:09.541Z,2.00
2018-09-29T03:13:39.079Z,1.80
2018-09-29T03:16:08.359Z,2.10
2018-09-29T03:18:37.580Z,2.33
2018-09-29T03:21:07.011Z,2.37
2018-09-29T03:23:36.845Z,2.20
2018-09-29T03:26:06.324Z,1.70
2018-09-29T03:28:35.943Z,1.93
2018-09-29T03:31:05.406Z,2.03
2018-09-29T03:33:34.785Z,2.10
2018-09-29T03:36:03.911Z,2.63
2018-09-29T03:38:33.213Z,2.10
2018-09-29T03:41:02.697Z,2.07
2018-09-29T03:43:32.164Z,2.03
2018-09-29T03:46:01.473Z,2.45
2018-09-29T03:48:30.858Z,2.10
2018-09-29T03:51:00.204Z,2.13
2018-09-29T03:53:30.294Z,2.00
2018-09-29T03:55:59.692Z,2.10
2018-09-29T03:58:29.428Z,1.77
2018-09-29T04:00:58.942Z,2.00
2018-09-29T04:03:28.401Z,1.80
2018-09-29T04:05:57.799Z,1.97
2018-09-29T04:08:27.457Z,2.30
2018-09-29T04:10:56.613Z,2.20
2018-09-29T04:13:26.122Z,2.10
2018-09-29T04:15:55.519Z,1.80
2018-09-29T04:18:24.831Z,2.27
2018-09-29T04:20:54.229Z,1.93
2018-09-29T04:23:23.571Z,1.87
2018-09-29T04:25:53.035Z,2.10
2018-09-29T04:28:22.605Z,2.03
2018-09-29T04:30:52.535Z,2.10
2018-09-29T04:33:21.823Z,2.20
2018-09-29T04:35:51.185Z,2.53
2018-09-29T04:38:20.669Z,2.07
2018-09-29T04:40:50.067Z,2.37
2018-09-29T04:43:19.858Z,2.13
2018-09-29T04:45:49.030Z,2.00
2018-09-29T04:48:18.175Z,2.40
2018-09-29T04:50:47.492Z,3.10
2018-09-29T04:53:16.797Z,2.90
2018-09-29T04:55:46.105Z,2.57
2018-09-29T04:58:15.155Z,2.27
2018-09-29T05:00:44.500Z,2.73
2018-09-29T05:03:13.748Z,2.43
2018-09-29T05:05:42.995Z,2.80
2018-09-29T05:08:12.319Z,2.30
2018-09-29T05:10:42.227Z,2.33
2018-09-29T05:13:11.720Z,2.20
2018-09-29T05:15:41.243Z,2.52
2018-09-29T05:18:10.556Z,2.20
2018-09-29T05:20:39.903Z,2.20
2018-09-29T05:23:19.097Z,1.80
2018-09-29T05:25:48.608Z,2.20
2018-09-29T05:28:18.082Z,2.50
2018-09-29T05:30:47.503Z,2.60
2018-09-29T05:33:16.949Z,2.63
2018-09-29T05:35:46.537Z,2.40
2018-09-29T05:38:16.011Z,2.83
2018-09-29T05:40:46.868Z,3.00
2018-09-29T05:43:16.220Z,2.97
2018-09-29T05:45:45.502Z,3.10
2018-09-29T05:48:15.127Z,2.80
2018-09-29T05:50:44.526Z,2.63
2018-09-29T05:53:13.961Z,2.60
2018-09-29T05:55:43.501Z,3.05
2018-09-29T05:58:13.262Z,3.03
2018-09-29T06:00:42.581Z,2.47
2018-09-29T06:03:11.878Z,2.60
2018-09-29T06:05:41.678Z,2.67
2018-09-29T06:08:11.030Z,2.63
2018-09-29T06:10:40.428Z,2.67
2018-09-29T06:13:10.531Z,2.30
2018-09-29T06:15:39.699Z,3.03
2018-09-29T06:18:09.052Z,2.70
2018-09-29T06:20:42.722Z,2.53
2018-09-29T06:23:12.124Z,2.70
2018-09-29T06:25:41.491Z,2.72
2018-09-29T06:28:10.757Z,2.90
2018-09-29T06:30:40.183Z,2.40
2018-09-29T06:33:09.405Z,2.40
2018-09-29T06:35:38.741Z,2.50
2018-09-29T06:38:08.128Z,2.53
2018-09-29T06:40:37.734Z,2.30
2018-09-29T06:43:06.971Z,2.33
2018-09-29T06:46:18.791Z,2.60
2018-09-29T06:48:47.676Z,2.43
2018-09-29T06:51:16.998Z,2.37
2018-09-29T06:53:45.986Z,2.50
2018-09-29T06:56:15.134Z,2.30
2018-09-29T06:58:44.411Z,2.20
2018-09-29T07:01:13.568Z,2.37
2018-09-29T07:03:42.766Z,2.83
2018-09-29T07:06:12.135Z,2.70
2018-09-29T07:08:41.253Z,2.80
2018-09-29T07:11:10.434Z,2.27
2018-09-29T07:13:40.182Z,2.20
2018-09-29T07:16:09.561Z,2.20
2018-09-29T07:18:38.728Z,2.40
2018-09-29T07:21:08.160Z,2.30
2018-09-29T07:23:37.567Z,2.10
2018-09-29T07:26:07.894Z,2.20
2018-09-29T07:28:37.089Z,2.40
2018-09-29T07:31:06.564Z,2.20
2018-09-29T07:33:36.054Z,2.23
2018-09-29T07:36:05.600Z,2.20
2018-09-29T07:38:35.139Z,2.30
2018-09-29T07:41:04.983Z,2.27
2018-09-29T07:43:34.554Z,2.27
2018-09-29T07:46:03.665Z,2.27
2018-09-29T07:48:33.223Z,2.10
2018-09-29T07:51:02.804Z,2.20
2018-09-29T07:53:32.065Z,2.20
2018-09-29T07:56:01.467Z,2.40
2018-09-29T07:58:30.880Z,2.73
2018-09-29T08:01:00.328Z,2.20
2018-09-29T08:03:29.640Z,2.10
2018-09-29T08:05:59.083Z,2.17
2018-09-29T08:08:28.293Z,2.13
2018-09-29T08:10:57.878Z,1.80
2018-09-29T08:13:27.202Z,2.00
2018-09-29T08:15:56.563Z,1.80
2018-09-29T08:18:26.013Z,2.10
2018-09-29T08:20:55.630Z,2.03
2018-09-29T08:23:25.069Z,2.07
2018-09-29T08:25:54.487Z,2.10
2018-09-29T08:28:23.997Z,1.60
2018-09-29T08:30:53.393Z,2.27
2018-09-29T08:33:22.817Z,2.50
2018-09-29T08:35:52.719Z,2.00
2018-09-29T08:38:22.276Z,1.60
2018-09-29T08:40:51.545Z,1.90
2018-09-29T08:43:20.876Z,1.97
2018-09-29T08:45:50.090Z,1.80
2018-09-29T08:48:19.520Z,2.23
2018-09-29T08:50:48.921Z,2.10
2018-09-29T08:53:18.425Z,1.70
2018-09-29T08:55:47.577Z,1.60
2018-09-29T08:58:16.856Z,1.80
2018-09-29T09:00:46.449Z,1.50
2018-09-29T09:03:15.931Z,1.80
2018-09-29T09:05:45.196Z,1.93
2018-09-29T09:08:14.547Z,1.60
2018-09-29T09:10:43.965Z,1.70
2018-09-29T09:13:13.329Z,1.50
2018-09-29T09:15:42.675Z,1.70
2018-09-29T09:18:11.869Z,1.80
2018-09-29T09:20:41.339Z,1.77
2018-09-29T09:23:10.572Z,1.83
2018-09-29T09:25:39.975Z,1.73
2018-09-29T09:28:09.480Z,1.80
2018-09-29T09:30:39.003Z,1.73
2018-09-29T09:33:08.335Z,1.70
2018-09-29T09:35:38.483Z,1.83
2018-09-29T09:38:08.275Z,1.90
2018-09-29T09:40:38.504Z,1.60
2018-09-29T09:43:08.879Z,1.70
2018-09-29T09:45:38.392Z,1.47
2018-09-29T09:48:07.601Z,1.60
2018-09-29T09:50:37.051Z,1.43
2018-09-29T09:53:06.503Z,1.40
2018-09-29T09:55:36.012Z,1.67
2018-09-29T09:58:05.463Z,1.80
2018-09-29T10:00:39.827Z,1.70
2018-09-29T10:03:21.763Z,1.57
2018-09-29T10:05:51.125Z,1.77
2018-09-29T10:08:20.565Z,1.30
2018-09-29T10:10:49.809Z,1.33
2018-09-29T10:13:19.231Z,1.43
2018-09-29T10:15:48.764Z,1.63
2018-09-29T10:18:18.117Z,1.40
2018-09-29T10:20:47.505Z,1.43
2018-09-29T10:23:16.927Z,1.70
2018-09-29T10:25:46.295Z,1.30
2018-09-29T10:28:15.619Z,1.57
2018-09-29T10:30:44.921Z,1.40
2018-09-29T10:33:14.407Z,1.60
2018-09-29T10:35:44.083Z,1.37
2018-09-29T10:38:13.515Z,1.50
2018-09-29T10:40:42.859Z,1.40
2018-09-29T10:43:13.167Z,1.73
2018-09-29T10:45:42.657Z,1.50
2018-09-29T10:48:14.001Z,1.57
2018-09-29T10:50:43.393Z,1.50
2018-09-29T10:53:12.926Z,1.50
2018-09-29T10:55:42.061Z,1.43
2018-09-29T10:58:11.481Z,1.33
2018-09-29T11:00:46.736Z,1.27
2018-09-29T11:03:16.291Z,1.27
2018-09-29T11:05:48.741Z,1.20
2018-09-29T11:08:18.111Z,1.50
2018-09-29T11:10:47.573Z,1.80
2018-09-29T11:13:16.933Z,1.47
2018-09-29T11:15:46.172Z,1.30
2018-09-29T11:18:15.485Z,1.27
2018-09-29T11:20:45.026Z,1.40
2018-09-29T11:23:14.141Z,1.30
2018-09-29T11:25:46.554Z,1.30
2018-09-29T11:28:15.848Z,1.30
2018-09-29T11:30:45.199Z,1.40
2018-09-29T11:33:14.605Z,1.40
2018-09-29T11:35:43.924Z,1.50
2018-09-29T11:38:13.139Z,1.47
2018-09-29T11:40:42.623Z,1.47
2018-09-29T11:43:11.959Z,1.37
2018-09-29T11:45:41.325Z,1.27
2018-09-29T11:48:14.915Z,1.53
2018-09-29T11:50:44.348Z,1.40
2018-09-29T11:53:13.869Z,1.20
2018-09-29T11:55:43.245Z,1.27
2018-09-29T11:58:12.722Z,1.30
2018-09-29T12:00:42.524Z,1.40
2018-09-29T12:03:12.385Z,1.30
2018-09-29T12:05:41.771Z,1.77
2018-09-29T12:08:11.373Z,1.50
2018-09-29T12:10:40.868Z,1.30
2018-09-29T12:13:10.269Z,1.47
2018-09-29T12:15:40.755Z,1.30
2018-09-29T12:18:10.111Z,1.30
2018-09-29T12:23:32.365Z,1.10
2018-09-29T12:26:01.689Z,1.60
2018-09-29T12:28:30.842Z,1.60
2018-09-29T12:31:00.305Z,1.63
2018-09-29T12:33:29.672Z,1.33
2018-09-29T12:35:58.999Z,1.30
2018-09-29T12:38:28.613Z,1.50
2018-09-29T12:40:58.003Z,2.00
2018-09-29T12:43:27.229Z,1.70
2018-09-29T12:45:56.699Z,1.83
2018-09-29T12:48:25.776Z,1.65
2018-09-29T12:50:54.961Z,1.60
2018-09-29T12:53:24.717Z,1.50
2018-09-29T12:55:54.089Z,1.30
2018-09-29T12:58:23.434Z,1.27
2018-09-29T13:00:53.237Z,1.40
2018-09-29T13:03:22.601Z,1.35
2018-09-29T13:05:51.679Z,1.42
2018-09-29T13:08:21.028Z,1.70
2018-09-29T13:10:50.426Z,1.67
2018-09-29T13:13:19.717Z,1.70
2018-09-29T13:15:49.411Z,1.40
2018-09-29T13:18:18.686Z,1.70
2018-09-29T13:20:48.125Z,1.42
2018-09-29T13:23:17.431Z,1.45
2018-09-29T13:25:46.977Z,1.42
2018-09-29T13:28:16.276Z,1.17
2018-09-29T13:30:45.740Z,1.60
2018-09-29T13:33:15.327Z,1.47
2018-09-29T13:35:44.569Z,1.82
2018-09-29T13:38:13.937Z,2.00
2018-09-29T13:40:43.372Z,1.30
2018-09-29T13:43:12.764Z,1.30
2018-09-29T13:45:42.065Z,1.30
2018-09-29T13:48:11.508Z,1.42
2018-09-29T13:50:40.856Z,1.75
2018-09-29T13:53:10.197Z,1.80
2018-09-29T13:55:39.531Z,1.50
2018-09-29T13:58:08.702Z,1.45
2018-09-29T14:00:38.484Z,1.15
2018-09-29T14:03:07.714Z,1.43
2018-09-29T14:05:37.187Z,2.00
2018-09-29T14:08:06.752Z,1.60
2018-09-29T14:10:36.223Z,1.43
2018-09-29T14:13:06.647Z,1.30
2018-09-29T14:15:36.123Z,1.47
2018-09-29T14:18:05.427Z,1.53
2018-09-29T14:20:34.628Z,1.40
2018-09-29T14:23:03.904Z,1.83
2018-09-29T14:25:33.218Z,1.40
2018-09-29T14:28:02.532Z,1.70
2018-09-29T14:30:31.910Z,1.50
2018-09-29T14:33:01.445Z,1.37
2018-09-29T14:35:30.950Z,1.27
2018-09-29T14:38:01.006Z,1.37
2018-09-29T14:40:30.876Z,1.50
2018-09-29T14:43:00.240Z,1.37
2018-09-29T14:45:29.613Z,1.60
2018-09-29T14:47:59.046Z,1.65
2018-09-29T14:50:28.416Z,1.40
2018-09-29T14:52:58.103Z,1.57
2018-09-29T14:55:27.970Z,1.43
2018-09-29T14:57:58.036Z,1.93
2018-09-29T15:00:27.726Z,1.70
2018-09-29T15:02:57.078Z,1.60
2018-09-29T15:05:26.433Z,1.20
2018-09-29T15:07:55.988Z,1.40
2018-09-29T15:10:25.373Z,1.27
2018-09-29T15:12:54.682Z,1.50
2018-09-29T15:15:23.863Z,1.30
2018-09-29T15:17:53.501Z,1.73
2018-09-29T15:20:23.256Z,1.43
2018-09-29T15:22:52.549Z,1.23
2018-09-29T15:25:22.138Z,1.40
2018-09-29T15:27:51.651Z,1.33
2018-09-29T15:30:26.822Z,1.23
2018-09-29T15:32:56.309Z,1.50
2018-09-29T15:35:26.023Z,1.90
2018-09-29T15:37:59.038Z,1.43
2018-09-29T15:40:28.312Z,1.60
2018-09-29T15:42:57.447Z,1.30
2018-09-29T15:45:27.790Z,1.53
2018-09-29T15:47:57.363Z,1.43
2018-09-29T15:50:27.304Z,1.33
2018-09-29T15:52:56.808Z,1.70
2018-09-29T15:55:26.083Z,1.57
2018-09-29T15:57:55.610Z,1.57
2018-09-29T16:00:25.398Z,1.53
2018-09-29T16:02:54.917Z,1.80
2018-09-29T16:05:24.187Z,1.53
2018-09-29T16:07:53.496Z,1.33
2018-09-29T16:10:23.270Z,1.50
2018-09-29T16:12:52.724Z,1.23
2018-09-29T16:15:22.222Z,1.50
2018-09-29T16:17:51.848Z,1.60
2018-09-29T16:20:21.708Z,1.93
2018-09-29T16:22:51.229Z,1.40
2018-09-29T16:25:20.528Z,1.93
2018-09-29T16:27:50.007Z,1.90
2018-09-29T16:30:19.337Z,1.73
2018-09-29T16:32:48.980Z,2.03
2018-09-29T16:35:18.416Z,1.80
2018-09-29T16:37:48.128Z,1.70
2018-09-29T16:40:17.434Z,1.70
2018-09-29T16:42:46.896Z,1.90
2018-09-29T16:45:16.198Z,1.83
2018-09-29T16:47:45.672Z,2.00
2018-09-29T16:50:15.039Z,1.90
2018-09-29T16:52:44.483Z,1.73
2018-09-29T16:55:14.005Z,1.60
2018-09-29T16:57:43.556Z,1.63
2018-09-29T17:00:12.823Z,2.10
2018-09-29T17:02:42.042Z,1.60
2018-09-29T17:05:11.170Z,1.50
2018-09-29T17:07:41.784Z,1.62
2018-09-29T17:10:11.213Z,1.60
2018-09-29T17:12:40.609Z,1.67
2018-09-29T17:15:10.055Z,1.70
2018-09-29T17:17:39.203Z,2.33
2018-09-29T17:20:08.484Z,1.70
2018-09-29T17:22:38.475Z,1.60
2018-09-29T17:25:07.838Z,2.10
2018-09-29T17:27:38.105Z,1.60
2018-09-29T17:30:07.806Z,1.70
2018-09-29T17:32:37.102Z,1.90
2018-09-29T17:35:06.880Z,2.00
2018-09-29T17:37:36.242Z,1.70
2018-09-29T17:40:06.026Z,1.97
2018-09-29T17:42:35.789Z,1.80
2018-09-29T17:45:05.452Z,1.90
2018-09-29T17:47:35.143Z,2.13
2018-09-29T17:50:04.448Z,2.13
2018-09-29T17:52:33.617Z,1.90
2018-09-29T17:55:02.891Z,2.20
2018-09-29T17:57:32.183Z,2.30
2018-09-29T18:00:02.001Z,2.37
2018-09-29T18:02:31.481Z,2.33
2018-09-29T18:05:01.566Z,2.57
2018-09-29T18:07:31.093Z,2.20
2018-09-29T18:10:00.863Z,2.30
2018-09-29T18:12:30.339Z,2.17
2018-09-29T18:15:00.347Z,2.30
2018-09-29T18:17:29.748Z,2.07
2018-09-29T18:19:59.185Z,2.47
2018-09-29T18:22:28.652Z,2.27
2018-09-29T18:24:58.053Z,2.10
2018-09-29T18:27:27.471Z,2.27
2018-09-29T18:30:08.707Z,1.80
2018-09-29T18:32:38.087Z,2.03
2018-09-29T18:35:07.392Z,2.13
2018-09-29T18:37:36.749Z,2.30
2018-09-29T18:40:06.307Z,1.83
2018-09-29T18:42:36.334Z,1.87
2018-09-29T18:45:05.838Z,2.00
2018-09-29T18:47:35.429Z,1.80
2018-09-29T18:50:04.994Z,1.93
2018-09-29T18:52:34.562Z,1.83
2018-09-29T18:55:04.550Z,1.57
2018-09-29T18:57:34.128Z,2.10
2018-09-29T19:00:03.729Z,2.10
2018-09-29T19:02:33.151Z,2.47
2018-09-29T19:05:02.764Z,2.73
2018-09-29T19:07:32.368Z,2.47
2018-09-29T19:10:01.703Z,2.43
2018-09-29T19:12:31.063Z,2.30
2018-09-29T19:15:00.286Z,2.60
2018-09-29T19:17:30.920Z,2.50
2018-09-29T19:20:00.298Z,2.47
2018-09-29T19:22:29.691Z,2.70
2018-09-29T19:24:59.205Z,2.60
2018-09-29T19:27:29.024Z,2.57
2018-09-29T19:32:50.379Z,2.60
2018-09-29T19:35:20.218Z,2.53
2018-09-29T19:37:50.146Z,2.70
2018-09-29T19:40:21.875Z,2.50
2018-09-29T19:42:51.354Z,2.43
2018-09-29T19:45:20.829Z,2.30
2018-09-29T19:47:50.488Z,2.50
2018-09-29T19:50:19.598Z,2.40
2018-09-29T19:52:49.053Z,2.30
2018-09-29T19:55:18.692Z,2.63
2018-09-29T19:57:48.194Z,2.40
2018-09-29T20:00:17.578Z,2.30
2018-09-29T20:02:46.940Z,2.60
2018-09-29T20:05:16.882Z,2.23
2018-09-29T20:07:46.744Z,2.50
2018-09-29T20:10:16.517Z,2.30
2018-09-29T20:12:45.854Z,2.40
2018-09-29T20:15:15.508Z,2.17
2018-09-29T20:17:45.762Z,2.22
2018-09-29T20:20:15.542Z,2.50
2018-09-29T20:22:45.269Z,2.40
2018-09-29T20:25:14.550Z,1.90
2018-09-29T20:27:44.003Z,2.20
2018-09-29T20:30:13.655Z,2.30
2018-09-29T20:32:43.170Z,2.20
2018-09-29T20:35:12.600Z,1.90
2018-09-29T20:37:42.084Z,2.27
2018-09-29T20:40:11.702Z,1.97
2018-09-29T20:42:41.086Z,2.07
2018-09-29T20:45:10.420Z,2.00
2018-09-29T20:47:40.294Z,2.37
2018-09-29T20:50:09.640Z,2.50
2018-09-29T20:52:39.066Z,2.27
2018-09-29T20:55:08.265Z,1.97
2018-09-29T20:57:38.313Z,2.00
2018-09-29T21:00:07.785Z,2.50
2018-09-29T21:02:37.188Z,2.73
2018-09-29T21:05:06.660Z,2.60
2018-09-29T21:07:35.758Z,2.37
2018-09-29T21:10:05.125Z,2.40
2018-09-29T21:12:34.494Z,2.57
2018-09-29T21:15:04.060Z,2.00
2018-09-29T21:22:28.508Z,2.80
2018-09-29T21:24:59.453Z,2.10
2018-09-29T21:27:28.803Z,2.60
2018-09-29T21:29:57.814Z,2.70
2018-09-29T21:32:26.934Z,2.40
2018-09-29T21:34:56.364Z,2.43
2018-09-29T21:37:25.506Z,2.50
2018-09-29T21:39:54.671Z,2.20
2018-09-29T21:42:24.086Z,2.57
2018-09-29T21:44:53.914Z,2.30
2018-09-29T21:47:22.923Z,2.60
2018-09-29T21:49:52.112Z,2.30
2018-09-29T21:52:21.174Z,2.40
2018-09-29T21:54:50.143Z,2.20
2018-09-29T21:57:19.113Z,2.50
2018-09-29T21:59:48.089Z,2.40
2018-09-29T22:02:17.472Z,2.33
2018-09-29T22:04:47.960Z,2.50
2018-09-29T22:07:17.482Z,2.53
2018-09-29T22:09:46.767Z,2.57
2018-09-29T22:12:16.050Z,2.50
2018-09-29T22:14:45.354Z,2.70
2018-09-29T22:17:14.927Z,2.40
2018-09-29T22:19:44.202Z,2.97
2018-09-29T22:22:13.542Z,3.27
2018-09-29T22:24:43.246Z,2.60
2018-09-29T22:27:13.072Z,2.73
2018-09-29T22:29:42.468Z,2.70
2018-09-29T22:32:11.752Z,2.60
2018-09-29T22:34:41.064Z,3.03
2018-09-29T22:37:10.252Z,2.90
2018-09-29T22:39:39.765Z,3.13
2018-09-29T22:42:08.992Z,3.10
2018-09-29T22:44:38.479Z,3.50
2018-09-29T22:47:07.848Z,3.30
2018-09-29T22:49:37.353Z,3.40
2018-09-29T22:52:06.893Z,3.03
2018-09-29T22:54:36.269Z,3.17
2018-09-29T22:57:06.007Z,3.40
2018-09-29T22:59:35.237Z,3.27
2018-09-29T23:02:04.583Z,3.80
2018-09-29T23:04:34.426Z,3.97
2018-09-29T23:07:03.822Z,3.87
2018-09-29T23:09:33.103Z,3.50
2018-09-29T23:12:09.747Z,3.70
2018-09-29T23:14:38.969Z,4.00
2018-09-29T23:17:08.279Z,4.13
2018-09-29T23:19:37.889Z,4.00
2018-09-29T23:22:07.283Z,3.97
2018-09-29T23:24:36.917Z,4.23
2018-09-29T23:27:06.434Z,3.80
2018-09-29T23:29:36.005Z,3.73
2018-09-29T23:32:05.551Z,3.73
2018-09-29T23:34:34.818Z,4.00
2018-09-29T23:37:04.327Z,4.00
2018-09-29T23:39:33.571Z,4.60
2018-09-29T23:42:02.907Z,4.50
2018-09-29T23:44:32.141Z,4.27
2018-09-29T23:47:01.435Z,4.43
2018-09-29T23:49:30.874Z,4.00
2018-09-29T23:52:00.187Z,3.70
2018-09-29T23:54:29.617Z,4.00
2018-09-29T23:56:58.934Z,3.50
2018-09-29T23:59:28.367Z,4.37
